sensor_id;sensor_type;location;lat;lon;timestamp;P1;durP1;ratioP1;P2;durP2;ratioP2
6111;SDS011;3086;48.802;9.394;2023-04-15T00:01:37;7.00;;;3.67;;
6111;SDS011;3086;48.802;9.394;2023-04-15T00:04:59;5.27;;;3.93;;
6111;SDS011;3086;48.802;9.394;2023-04-15T00:08:20;6.03;;;4.23;;
6111;SDS011;3086;48.802;9.394;2023-04-15T00:11:42;7.33;;;4.07;;
6111;SDS011;3086;48.802;9.394;2023-04-15T00:15:06;5.50;;;4.30;;
6111;SDS011;3086;48.802;9.394;2023-04-15T00:18:29;4.47;;;4.07;;
6111;SDS011;3086;48.802;9.394;2023-04-15T00:21:50;6.03;;;4.00;;
6111;SDS011;3086;48.802;9.394;2023-04-15T00:25:12;4.37;;;3.47;;
6111;SDS011;3086;48.802;9.394;2023-04-15T00:28:34;5.27;;;4.10;;
6111;SDS011;3086;48.802;9.394;2023-04-15T00:31:57;3.97;;;3.53;;
6111;SDS011;3086;48.802;9.394;2023-04-15T00:35:19;5.37;;;3.53;;
6111;SDS011;3086;48.802;9.394;2023-04-15T00:38:44;5.70;;;3.70;;
6111;SDS011;3086;48.802;9.394;2023-04-15T00:42:06;6.63;;;3.77;;
6111;SDS011;3086;48.802;9.394;2023-04-15T00:45:27;5.33;;;4.10;;
6111;SDS011;3086;48.802;9.394;2023-04-15T00:48:50;5.13;;;3.67;;
6111;SDS011;3086;48.802;9.394;2023-04-15T00:52:12;6.73;;;3.90;;
6111;SDS011;3086;48.802;9.394;2023-04-15T00:55:34;4.00;;;3.70;;
6111;SDS011;3086;48.802;9.394;2023-04-15T00:58:56;4.43;;;3.70;;
6111;SDS011;3086;48.802;9.394;2023-04-15T01:02:19;4.33;;;3.90;;
6111;SDS011;3086;48.802;9.394;2023-04-15T01:05:42;5.77;;;3.97;;
6111;SDS011;3086;48.802;9.394;2023-04-15T01:09:04;4.50;;;4.10;;
6111;SDS011;3086;48.802;9.394;2023-04-15T01:12:26;6.80;;;4.03;;
6111;SDS011;3086;48.802;9.394;2023-04-15T01:15:48;3.90;;;3.60;;
6111;SDS011;3086;48.802;9.394;2023-04-15T01:19:17;6.23;;;3.90;;
6111;SDS011;3086;48.802;9.394;2023-04-15T01:22:50;5.03;;;4.53;;
6111;SDS011;3086;48.802;9.394;2023-04-15T01:26:26;5.03;;;4.27;;
6111;SDS011;3086;48.802;9.394;2023-04-15T01:29:49;4.23;;;3.83;;
6111;SDS011;3086;48.802;9.394;2023-04-15T01:33:22;5.23;;;4.30;;
6111;SDS011;3086;48.802;9.394;2023-04-15T01:36:49;6.43;;;4.03;;
6111;SDS011;3086;48.802;9.394;2023-04-15T01:40:11;5.20;;;3.97;;
6111;SDS011;3086;48.802;9.394;2023-04-15T01:43:34;5.23;;;3.60;;
6111;SDS011;3086;48.802;9.394;2023-04-15T01:46:56;4.60;;;4.00;;
6111;SDS011;3086;48.802;9.394;2023-04-15T01:50:27;4.93;;;4.20;;
6111;SDS011;3086;48.802;9.394;2023-04-15T01:54:07;6.30;;;4.00;;
6111;SDS011;3086;48.802;9.394;2023-04-15T02:40:30;6.97;;;3.87;;
6111;SDS011;3086;48.802;9.394;2023-04-15T02:53:39;6.20;;;4.57;;
6111;SDS011;3086;48.802;9.394;2023-04-15T03:22:56;5.87;;;4.57;;
6111;SDS011;3086;48.802;9.394;2023-04-15T03:26:25;5.30;;;4.43;;
6111;SDS011;3086;48.802;9.394;2023-04-15T03:29:48;5.23;;;4.57;;
6111;SDS011;3086;48.802;9.394;2023-04-15T03:33:10;7.90;;;4.87;;
6111;SDS011;3086;48.802;9.394;2023-04-15T03:41:04;5.33;;;4.20;;
6111;SDS011;3086;48.802;9.394;2023-04-15T03:44:26;5.73;;;4.47;;
6111;SDS011;3086;48.802;9.394;2023-04-15T03:52:41;6.77;;;4.03;;
6111;SDS011;3086;48.802;9.394;2023-04-15T03:56:04;6.27;;;4.53;;
6111;SDS011;3086;48.802;9.394;2023-04-15T03:59:26;10.63;;;4.90;;
6111;SDS011;3086;48.802;9.394;2023-04-15T04:02:48;6.87;;;5.37;;
6111;SDS011;3086;48.802;9.394;2023-04-15T04:06:09;6.97;;;4.53;;
6111;SDS011;3086;48.802;9.394;2023-04-15T04:09:31;5.67;;;4.90;;
6111;SDS011;3086;48.802;9.394;2023-04-15T04:12:54;6.63;;;5.27;;
6111;SDS011;3086;48.802;9.394;2023-04-15T04:16:30;7.37;;;5.27;;
6111;SDS011;3086;48.802;9.394;2023-04-15T04:19:52;6.20;;;4.63;;
6111;SDS011;3086;48.802;9.394;2023-04-15T04:23:14;6.40;;;4.77;;
6111;SDS011;3086;48.802;9.394;2023-04-15T04:26:38;8.80;;;4.90;;
6111;SDS011;3086;48.802;9.394;2023-04-15T04:30:15;7.93;;;4.97;;
6111;SDS011;3086;48.802;9.394;2023-04-15T04:47:16;7.57;;;5.37;;
6111;SDS011;3086;48.802;9.394;2023-04-15T04:50:43;9.33;;;5.17;;
6111;SDS011;3086;48.802;9.394;2023-04-15T04:54:11;8.30;;;4.30;;
6111;SDS011;3086;48.802;9.394;2023-04-15T04:57:36;10.13;;;5.10;;
6111;SDS011;3086;48.802;9.394;2023-04-15T05:01:01;6.63;;;4.70;;
6111;SDS011;3086;48.802;9.394;2023-04-15T05:04:28;6.37;;;4.40;;
6111;SDS011;3086;48.802;9.394;2023-04-15T05:07:50;7.37;;;4.53;;
6111;SDS011;3086;48.802;9.394;2023-04-15T05:11:12;5.90;;;4.53;;
6111;SDS011;3086;48.802;9.394;2023-04-15T05:14:34;7.10;;;4.93;;
6111;SDS011;3086;48.802;9.394;2023-04-15T05:17:55;6.83;;;4.67;;
6111;SDS011;3086;48.802;9.394;2023-04-15T05:21:18;5.93;;;5.00;;
6111;SDS011;3086;48.802;9.394;2023-04-15T05:24:40;7.17;;;6.00;;
6111;SDS011;3086;48.802;9.394;2023-04-15T05:28:02;8.57;;;4.90;;
6111;SDS011;3086;48.802;9.394;2023-04-15T05:31:23;8.93;;;5.00;;
6111;SDS011;3086;48.802;9.394;2023-04-15T05:34:45;12.67;;;4.93;;
6111;SDS011;3086;48.802;9.394;2023-04-15T05:38:08;6.80;;;4.73;;
6111;SDS011;3086;48.802;9.394;2023-04-15T05:41:30;5.90;;;4.30;;
6111;SDS011;3086;48.802;9.394;2023-04-15T05:44:51;7.07;;;5.33;;
6111;SDS011;3086;48.802;9.394;2023-04-15T05:48:13;7.93;;;5.03;;
6111;SDS011;3086;48.802;9.394;2023-04-15T05:51:34;6.47;;;5.70;;
6111;SDS011;3086;48.802;9.394;2023-04-15T05:54:57;6.47;;;4.80;;
6111;SDS011;3086;48.802;9.394;2023-04-15T05:58:19;9.97;;;6.10;;
6111;SDS011;3086;48.802;9.394;2023-04-15T06:01:40;9.77;;;5.70;;
6111;SDS011;3086;48.802;9.394;2023-04-15T06:05:03;7.90;;;5.53;;
6111;SDS011;3086;48.802;9.394;2023-04-15T06:08:28;8.13;;;5.83;;
6111;SDS011;3086;48.802;9.394;2023-04-15T06:11:53;7.00;;;5.37;;
6111;SDS011;3086;48.802;9.394;2023-04-15T06:15:22;7.10;;;4.90;;
6111;SDS011;3086;48.802;9.394;2023-04-15T06:18:43;6.90;;;5.00;;
6111;SDS011;3086;48.802;9.394;2023-04-15T06:22:10;5.17;;;4.67;;
6111;SDS011;3086;48.802;9.394;2023-04-15T06:34:06;7.43;;;4.80;;
6111;SDS011;3086;48.802;9.394;2023-04-15T06:37:28;5.93;;;3.97;;
6111;SDS011;3086;48.802;9.394;2023-04-15T06:40:53;5.73;;;4.33;;
6111;SDS011;3086;48.802;9.394;2023-04-15T06:44:15;10.67;;;4.90;;
6111;SDS011;3086;48.802;9.394;2023-04-15T06:47:37;4.27;;;3.87;;
6111;SDS011;3086;48.802;9.394;2023-04-15T06:51:01;6.07;;;4.17;;
6111;SDS011;3086;48.802;9.394;2023-04-15T06:54:28;9.20;;;4.27;;
6111;SDS011;3086;48.802;9.394;2023-04-15T06:57:49;6.80;;;3.97;;
6111;SDS011;3086;48.802;9.394;2023-04-15T07:01:12;4.43;;;3.93;;
6111;SDS011;3086;48.802;9.394;2023-04-15T07:04:34;7.33;;;4.50;;
6111;SDS011;3086;48.802;9.394;2023-04-15T07:07:57;10.47;;;4.43;;
6111;SDS011;3086;48.802;9.394;2023-04-15T07:11:19;11.20;;;4.20;;
6111;SDS011;3086;48.802;9.394;2023-04-15T07:14:41;5.37;;;4.23;;
6111;SDS011;3086;48.802;9.394;2023-04-15T07:18:02;6.00;;;4.23;;
6111;SDS011;3086;48.802;9.394;2023-04-15T07:21:24;4.00;;;3.50;;
6111;SDS011;3086;48.802;9.394;2023-04-15T07:24:48;5.80;;;4.33;;
6111;SDS011;3086;48.802;9.394;2023-04-15T07:28:10;4.13;;;3.67;;
6111;SDS011;3086;48.802;9.394;2023-04-15T07:31:31;5.33;;;3.67;;
6111;SDS011;3086;48.802;9.394;2023-04-15T07:34:54;6.70;;;3.93;;
6111;SDS011;3086;48.802;9.394;2023-04-15T07:38:15;6.00;;;3.63;;
6111;SDS011;3086;48.802;9.394;2023-04-15T07:41:38;6.20;;;3.80;;
6111;SDS011;3086;48.802;9.394;2023-04-15T07:45:00;6.30;;;3.93;;
6111;SDS011;3086;48.802;9.394;2023-04-15T07:48:22;6.90;;;4.00;;
6111;SDS011;3086;48.802;9.394;2023-04-15T07:51:44;4.33;;;3.50;;
6111;SDS011;3086;48.802;9.394;2023-04-15T07:55:05;7.20;;;4.20;;
6111;SDS011;3086;48.802;9.394;2023-04-15T07:58:29;5.00;;;3.70;;
6111;SDS011;3086;48.802;9.394;2023-04-15T08:01:51;4.97;;;3.60;;
6111;SDS011;3086;48.802;9.394;2023-04-15T08:05:13;5.17;;;3.53;;
6111;SDS011;3086;48.802;9.394;2023-04-15T08:08:35;6.43;;;4.00;;
6111;SDS011;3086;48.802;9.394;2023-04-15T08:11:56;5.83;;;3.47;;
6111;SDS011;3086;48.802;9.394;2023-04-15T08:15:19;5.30;;;3.80;;
6111;SDS011;3086;48.802;9.394;2023-04-15T08:18:56;7.97;;;3.40;;
6111;SDS011;3086;48.802;9.394;2023-04-15T08:22:18;7.77;;;3.53;;
6111;SDS011;3086;48.802;9.394;2023-04-15T08:25:40;6.90;;;4.10;;
6111;SDS011;3086;48.802;9.394;2023-04-15T08:29:01;5.93;;;3.30;;
6111;SDS011;3086;48.802;9.394;2023-04-15T08:32:24;5.07;;;4.23;;
6111;SDS011;3086;48.802;9.394;2023-04-15T08:35:47;7.20;;;3.40;;
6111;SDS011;3086;48.802;9.394;2023-04-15T08:39:08;4.97;;;3.70;;
6111;SDS011;3086;48.802;9.394;2023-04-15T08:42:30;5.53;;;3.30;;
6111;SDS011;3086;48.802;9.394;2023-04-15T08:45:52;7.07;;;3.80;;
6111;SDS011;3086;48.802;9.394;2023-04-15T08:49:16;6.20;;;3.27;;
6111;SDS011;3086;48.802;9.394;2023-04-15T08:52:38;6.10;;;3.30;;
6111;SDS011;3086;48.802;9.394;2023-04-15T08:56:00;6.23;;;3.33;;
6111;SDS011;3086;48.802;9.394;2023-04-15T08:59:25;5.70;;;3.80;;
6111;SDS011;3086;48.802;9.394;2023-04-15T09:02:46;5.23;;;3.40;;
6111;SDS011;3086;48.802;9.394;2023-04-15T09:06:09;6.03;;;3.33;;
6111;SDS011;3086;48.802;9.394;2023-04-15T09:09:31;5.87;;;3.47;;
6111;SDS011;3086;48.802;9.394;2023-04-15T09:12:52;7.10;;;3.87;;
6111;SDS011;3086;48.802;9.394;2023-04-15T09:16:14;8.97;;;3.60;;
6111;SDS011;3086;48.802;9.394;2023-04-15T09:19:36;5.30;;;3.33;;
6111;SDS011;3086;48.802;9.394;2023-04-15T09:22:58;5.60;;;3.20;;
6111;SDS011;3086;48.802;9.394;2023-04-15T09:26:28;5.67;;;3.20;;
6111;SDS011;3086;48.802;9.394;2023-04-15T09:29:52;3.97;;;3.33;;
6111;SDS011;3086;48.802;9.394;2023-04-15T09:33:14;3.10;;;2.80;;
6111;SDS011;3086;48.802;9.394;2023-04-15T09:36:51;7.50;;;3.57;;
6111;SDS011;3086;48.802;9.394;2023-04-15T09:40:15;5.67;;;3.50;;
6111;SDS011;3086;48.802;9.394;2023-04-15T09:43:51;4.93;;;3.10;;
6111;SDS011;3086;48.802;9.394;2023-04-15T09:47:25;5.43;;;3.20;;
6111;SDS011;3086;48.802;9.394;2023-04-15T09:50:49;7.37;;;3.40;;
6111;SDS011;3086;48.802;9.394;2023-04-15T09:54:12;8.47;;;4.07;;
6111;SDS011;3086;48.802;9.394;2023-04-15T09:57:41;6.20;;;4.00;;
6111;SDS011;3086;48.802;9.394;2023-04-15T10:01:03;57.03;;;25.83;;
6111;SDS011;3086;48.802;9.394;2023-04-15T10:04:26;9.77;;;6.53;;
6111;SDS011;3086;48.802;9.394;2023-04-15T10:07:48;9.87;;;5.57;;
6111;SDS011;3086;48.802;9.394;2023-04-15T10:11:10;4.60;;;2.90;;
6111;SDS011;3086;48.802;9.394;2023-04-15T10:14:34;7.37;;;3.27;;
6111;SDS011;3086;48.802;9.394;2023-04-15T10:17:58;5.23;;;3.63;;
6111;SDS011;3086;48.802;9.394;2023-04-15T10:21:21;4.30;;;3.13;;
6111;SDS011;3086;48.802;9.394;2023-04-15T10:24:42;4.17;;;3.30;;
6111;SDS011;3086;48.802;9.394;2023-04-15T10:28:06;6.87;;;3.20;;
6111;SDS011;3086;48.802;9.394;2023-04-15T10:31:30;4.80;;;3.30;;
6111;SDS011;3086;48.802;9.394;2023-04-15T10:34:51;6.47;;;3.23;;
6111;SDS011;3086;48.802;9.394;2023-04-15T10:38:36;4.27;;;3.17;;
6111;SDS011;3086;48.802;9.394;2023-04-15T10:42:04;5.57;;;3.60;;
6111;SDS011;3086;48.802;9.394;2023-04-15T10:45:27;5.23;;;3.17;;
6111;SDS011;3086;48.802;9.394;2023-04-15T10:48:53;6.20;;;3.37;;
6111;SDS011;3086;48.802;9.394;2023-04-15T10:52:15;4.67;;;3.20;;
6111;SDS011;3086;48.802;9.394;2023-04-15T10:55:37;6.17;;;3.90;;
6111;SDS011;3086;48.802;9.394;2023-04-15T10:58:59;5.23;;;3.57;;
6111;SDS011;3086;48.802;9.394;2023-04-15T11:02:21;6.07;;;3.50;;
6111;SDS011;3086;48.802;9.394;2023-04-15T11:06:00;6.93;;;4.03;;
6111;SDS011;3086;48.802;9.394;2023-04-15T11:09:30;4.87;;;3.50;;
6111;SDS011;3086;48.802;9.394;2023-04-15T11:12:52;6.40;;;3.60;;
6111;SDS011;3086;48.802;9.394;2023-04-15T11:16:15;3.37;;;3.07;;
6111;SDS011;3086;48.802;9.394;2023-04-15T11:19:37;5.03;;;3.30;;
6111;SDS011;3086;48.802;9.394;2023-04-15T11:23:00;7.27;;;3.60;;
6111;SDS011;3086;48.802;9.394;2023-04-15T11:26:24;5.40;;;3.50;;
6111;SDS011;3086;48.802;9.394;2023-04-15T11:29:46;8.67;;;3.60;;
6111;SDS011;3086;48.802;9.394;2023-04-15T11:33:08;5.53;;;3.27;;
6111;SDS011;3086;48.802;9.394;2023-04-15T11:36:31;9.57;;;3.60;;
6111;SDS011;3086;48.802;9.394;2023-04-15T11:39:54;5.60;;;3.60;;
6111;SDS011;3086;48.802;9.394;2023-04-15T11:43:16;5.00;;;3.30;;
6111;SDS011;3086;48.802;9.394;2023-04-15T11:46:39;7.63;;;3.73;;
6111;SDS011;3086;48.802;9.394;2023-04-15T11:50:14;3.47;;;3.17;;
6111;SDS011;3086;48.802;9.394;2023-04-15T11:53:37;6.70;;;3.93;;
6111;SDS011;3086;48.802;9.394;2023-04-15T11:57:02;5.37;;;3.60;;
6111;SDS011;3086;48.802;9.394;2023-04-15T12:00:24;4.77;;;3.50;;
6111;SDS011;3086;48.802;9.394;2023-04-15T12:03:46;5.50;;;4.00;;
6111;SDS011;3086;48.802;9.394;2023-04-15T12:07:08;5.33;;;3.90;;
6111;SDS011;3086;48.802;9.394;2023-04-15T12:10:30;5.70;;;3.20;;
6111;SDS011;3086;48.802;9.394;2023-04-15T12:13:54;4.70;;;3.73;;
6111;SDS011;3086;48.802;9.394;2023-04-15T12:17:16;4.67;;;3.50;;
6111;SDS011;3086;48.802;9.394;2023-04-15T12:20:42;3.50;;;3.10;;
6111;SDS011;3086;48.802;9.394;2023-04-15T12:24:04;6.90;;;3.80;;
6111;SDS011;3086;48.802;9.394;2023-04-15T12:27:27;6.83;;;3.40;;
6111;SDS011;3086;48.802;9.394;2023-04-15T12:30:50;5.47;;;2.90;;
6111;SDS011;3086;48.802;9.394;2023-04-15T12:34:12;5.37;;;3.30;;
6111;SDS011;3086;48.802;9.394;2023-04-15T12:37:34;4.17;;;3.27;;
6111;SDS011;3086;48.802;9.394;2023-04-15T12:40:56;4.27;;;3.07;;
6111;SDS011;3086;48.802;9.394;2023-04-15T12:44:18;5.60;;;3.00;;
6111;SDS011;3086;48.802;9.394;2023-04-15T12:47:44;3.97;;;2.97;;
6111;SDS011;3086;48.802;9.394;2023-04-15T12:51:06;4.30;;;2.80;;
6111;SDS011;3086;48.802;9.394;2023-04-15T12:54:28;4.07;;;2.97;;
6111;SDS011;3086;48.802;9.394;2023-04-15T12:57:50;4.70;;;3.30;;
6111;SDS011;3086;48.802;9.394;2023-04-15T13:01:11;5.10;;;3.43;;
6111;SDS011;3086;48.802;9.394;2023-04-15T13:04:34;2.97;;;2.77;;
6111;SDS011;3086;48.802;9.394;2023-04-15T13:07:56;3.83;;;2.60;;
6111;SDS011;3086;48.802;9.394;2023-04-15T13:11:18;4.43;;;3.33;;
6111;SDS011;3086;48.802;9.394;2023-04-15T13:14:39;2.77;;;2.43;;
6111;SDS011;3086;48.802;9.394;2023-04-15T13:18:01;3.60;;;2.70;;
6111;SDS011;3086;48.802;9.394;2023-04-15T13:21:23;3.27;;;2.50;;
6111;SDS011;3086;48.802;9.394;2023-04-15T13:24:46;2.30;;;2.10;;
6111;SDS011;3086;48.802;9.394;2023-04-15T13:28:08;3.37;;;2.10;;
6111;SDS011;3086;48.802;9.394;2023-04-15T13:31:31;4.00;;;2.57;;
6111;SDS011;3086;48.802;9.394;2023-04-15T13:34:52;4.27;;;2.60;;
6111;SDS011;3086;48.802;9.394;2023-04-15T13:38:16;2.37;;;2.20;;
6111;SDS011;3086;48.802;9.394;2023-04-15T13:41:38;4.77;;;3.53;;
6111;SDS011;3086;48.802;9.394;2023-04-15T13:45:00;8.17;;;5.70;;
6111;SDS011;3086;48.802;9.394;2023-04-15T13:48:22;4.07;;;2.60;;
6111;SDS011;3086;48.802;9.394;2023-04-15T13:51:43;2.83;;;2.47;;
6111;SDS011;3086;48.802;9.394;2023-04-15T13:55:07;2.37;;;2.17;;
6111;SDS011;3086;48.802;9.394;2023-04-15T13:58:29;2.00;;;1.80;;
6111;SDS011;3086;48.802;9.394;2023-04-15T14:01:50;3.17;;;2.10;;
6111;SDS011;3086;48.802;9.394;2023-04-15T14:05:12;3.30;;;1.93;;
6111;SDS011;3086;48.802;9.394;2023-04-15T14:08:33;2.83;;;1.70;;
6111;SDS011;3086;48.802;9.394;2023-04-15T14:11:56;1.67;;;1.57;;
6111;SDS011;3086;48.802;9.394;2023-04-15T14:15:19;2.03;;;1.77;;
6111;SDS011;3086;48.802;9.394;2023-04-15T14:18:41;3.97;;;3.10;;
6111;SDS011;3086;48.802;9.394;2023-04-15T14:22:03;3.03;;;1.80;;
6111;SDS011;3086;48.802;9.394;2023-04-15T14:25:25;1.83;;;1.73;;
6111;SDS011;3086;48.802;9.394;2023-04-15T14:28:48;1.93;;;1.60;;
6111;SDS011;3086;48.802;9.394;2023-04-15T14:32:10;1.87;;;1.60;;
6111;SDS011;3086;48.802;9.394;2023-04-15T14:35:31;2.13;;;1.97;;
6111;SDS011;3086;48.802;9.394;2023-04-15T14:38:53;1.87;;;1.77;;
6111;SDS011;3086;48.802;9.394;2023-04-15T14:42:14;2.70;;;2.03;;
6111;SDS011;3086;48.802;9.394;2023-04-15T14:45:37;3.07;;;2.40;;
6111;SDS011;3086;48.802;9.394;2023-04-15T14:48:59;3.13;;;2.50;;
6111;SDS011;3086;48.802;9.394;2023-04-15T14:52:20;3.97;;;2.97;;
6111;SDS011;3086;48.802;9.394;2023-04-15T14:55:42;3.03;;;2.40;;
6111;SDS011;3086;48.802;9.394;2023-04-15T14:59:04;2.13;;;2.00;;
6111;SDS011;3086;48.802;9.394;2023-04-15T15:02:27;4.40;;;2.87;;
6111;SDS011;3086;48.802;9.394;2023-04-15T15:05:49;2.90;;;1.90;;
6111;SDS011;3086;48.802;9.394;2023-04-15T15:09:11;3.53;;;2.00;;
6111;SDS011;3086;48.802;9.394;2023-04-15T15:12:32;2.17;;;1.97;;
6111;SDS011;3086;48.802;9.394;2023-04-15T15:15:54;3.63;;;2.63;;
6111;SDS011;3086;48.802;9.394;2023-04-15T15:19:17;4.07;;;2.77;;
6111;SDS011;3086;48.802;9.394;2023-04-15T15:22:38;5.40;;;2.30;;
6111;SDS011;3086;48.802;9.394;2023-04-15T15:26:00;3.27;;;2.50;;
6111;SDS011;3086;48.802;9.394;2023-04-15T15:29:21;3.20;;;2.60;;
6111;SDS011;3086;48.802;9.394;2023-04-15T15:32:43;3.93;;;2.60;;
6111;SDS011;3086;48.802;9.394;2023-04-15T15:36:06;2.30;;;2.10;;
6111;SDS011;3086;48.802;9.394;2023-04-15T15:39:27;5.47;;;2.20;;
6111;SDS011;3086;48.802;9.394;2023-04-15T15:42:49;3.13;;;2.13;;
6111;SDS011;3086;48.802;9.394;2023-04-15T15:46:11;2.57;;;2.37;;
6111;SDS011;3086;48.802;9.394;2023-04-15T15:49:32;3.47;;;2.33;;
6111;SDS011;3086;48.802;9.394;2023-04-15T15:52:55;2.60;;;2.20;;
6111;SDS011;3086;48.802;9.394;2023-04-15T15:56:17;2.27;;;2.07;;
6111;SDS011;3086;48.802;9.394;2023-04-15T15:59:39;5.03;;;2.20;;
6111;SDS011;3086;48.802;9.394;2023-04-15T16:03:02;3.20;;;2.43;;
6111;SDS011;3086;48.802;9.394;2023-04-15T16:06:24;3.37;;;2.60;;
6111;SDS011;3086;48.802;9.394;2023-04-15T16:09:47;2.77;;;2.40;;
6111;SDS011;3086;48.802;9.394;2023-04-15T16:13:09;3.90;;;2.97;;
6111;SDS011;3086;48.802;9.394;2023-04-15T16:16:31;3.90;;;2.87;;
6111;SDS011;3086;48.802;9.394;2023-04-15T16:19:53;4.27;;;2.83;;
6111;SDS011;3086;48.802;9.394;2023-04-15T16:23:15;3.53;;;2.70;;
6111;SDS011;3086;48.802;9.394;2023-04-15T16:26:38;4.10;;;2.80;;
6111;SDS011;3086;48.802;9.394;2023-04-15T16:30:00;3.20;;;2.90;;
6111;SDS011;3086;48.802;9.394;2023-04-15T16:33:21;3.20;;;2.90;;
6111;SDS011;3086;48.802;9.394;2023-04-15T16:36:43;4.40;;;3.20;;
6111;SDS011;3086;48.802;9.394;2023-04-15T16:40:05;4.90;;;3.03;;
6111;SDS011;3086;48.802;9.394;2023-04-15T16:43:29;3.60;;;3.20;;
6111;SDS011;3086;48.802;9.394;2023-04-15T16:46:50;4.33;;;3.53;;
6111;SDS011;3086;48.802;9.394;2023-04-15T16:50:12;4.07;;;3.43;;
6111;SDS011;3086;48.802;9.394;2023-04-15T16:53:33;4.33;;;3.70;;
6111;SDS011;3086;48.802;9.394;2023-04-15T16:56:56;4.03;;;3.70;;
6111;SDS011;3086;48.802;9.394;2023-04-15T17:00:19;5.13;;;3.90;;
6111;SDS011;3086;48.802;9.394;2023-04-15T17:03:41;4.43;;;4.00;;
6111;SDS011;3086;48.802;9.394;2023-04-15T17:07:03;3.70;;;3.40;;
6111;SDS011;3086;48.802;9.394;2023-04-15T17:10:25;5.40;;;3.90;;
6111;SDS011;3086;48.802;9.394;2023-04-15T17:13:47;4.43;;;3.97;;
6111;SDS011;3086;48.802;9.394;2023-04-15T17:17:10;4.83;;;4.23;;
6111;SDS011;3086;48.802;9.394;2023-04-15T17:20:31;5.93;;;5.20;;
6111;SDS011;3086;48.802;9.394;2023-04-15T17:23:53;5.27;;;4.77;;
6111;SDS011;3086;48.802;9.394;2023-04-15T17:27:14;6.20;;;5.20;;
6111;SDS011;3086;48.802;9.394;2023-04-15T17:30:36;6.93;;;5.20;;
6111;SDS011;3086;48.802;9.394;2023-04-15T17:33:59;7.23;;;5.83;;
6111;SDS011;3086;48.802;9.394;2023-04-15T17:37:21;6.97;;;5.30;;
6111;SDS011;3086;48.802;9.394;2023-04-15T17:40:42;5.90;;;5.03;;
6111;SDS011;3086;48.802;9.394;2023-04-15T17:44:04;5.23;;;4.60;;
6111;SDS011;3086;48.802;9.394;2023-04-15T17:47:25;3.83;;;3.47;;
6111;SDS011;3086;48.802;9.394;2023-04-15T17:50:49;3.00;;;2.80;;
6111;SDS011;3086;48.802;9.394;2023-04-15T17:54:10;3.40;;;2.90;;
6111;SDS011;3086;48.802;9.394;2023-04-15T17:57:39;2.60;;;2.40;;
6111;SDS011;3086;48.802;9.394;2023-04-15T18:01:00;2.77;;;2.57;;
6111;SDS011;3086;48.802;9.394;2023-04-15T18:04:22;2.50;;;2.30;;
6111;SDS011;3086;48.802;9.394;2023-04-15T18:07:45;3.30;;;3.00;;
6111;SDS011;3086;48.802;9.394;2023-04-15T18:11:06;4.73;;;3.40;;
6111;SDS011;3086;48.802;9.394;2023-04-15T18:14:30;4.40;;;3.17;;
6111;SDS011;3086;48.802;9.394;2023-04-15T18:17:52;2.90;;;2.60;;
6111;SDS011;3086;48.802;9.394;2023-04-15T18:21:13;2.90;;;2.60;;
6111;SDS011;3086;48.802;9.394;2023-04-15T18:24:36;2.37;;;2.27;;
6111;SDS011;3086;48.802;9.394;2023-04-15T18:27:58;2.93;;;2.60;;
6111;SDS011;3086;48.802;9.394;2023-04-15T18:31:19;2.60;;;2.40;;
6111;SDS011;3086;48.802;9.394;2023-04-15T18:34:41;3.40;;;3.10;;
6111;SDS011;3086;48.802;9.394;2023-04-15T18:38:02;3.30;;;3.03;;
6111;SDS011;3086;48.802;9.394;2023-04-15T18:41:25;4.23;;;3.00;;
6111;SDS011;3086;48.802;9.394;2023-04-15T18:44:47;3.93;;;3.57;;
6111;SDS011;3086;48.802;9.394;2023-04-15T18:48:08;4.83;;;3.67;;
6111;SDS011;3086;48.802;9.394;2023-04-15T18:51:30;6.13;;;4.50;;
6111;SDS011;3086;48.802;9.394;2023-04-15T18:54:58;3.80;;;3.17;;
6111;SDS011;3086;48.802;9.394;2023-04-15T18:58:21;2.90;;;2.70;;
6111;SDS011;3086;48.802;9.394;2023-04-15T19:01:43;3.90;;;3.00;;
6111;SDS011;3086;48.802;9.394;2023-04-15T19:05:05;3.17;;;2.90;;
6111;SDS011;3086;48.802;9.394;2023-04-15T19:08:27;3.57;;;3.27;;
6111;SDS011;3086;48.802;9.394;2023-04-15T19:11:49;6.77;;;3.87;;
6111;SDS011;3086;48.802;9.394;2023-04-15T19:15:12;7.43;;;5.73;;
6111;SDS011;3086;48.802;9.394;2023-04-15T19:18:33;4.70;;;3.97;;
6111;SDS011;3086;48.802;9.394;2023-04-15T19:21:55;4.10;;;3.70;;
6111;SDS011;3086;48.802;9.394;2023-04-15T19:25:17;3.70;;;3.27;;
6111;SDS011;3086;48.802;9.394;2023-04-15T19:28:38;4.73;;;3.80;;
6111;SDS011;3086;48.802;9.394;2023-04-15T19:32:01;4.37;;;3.97;;
6111;SDS011;3086;48.802;9.394;2023-04-15T19:35:23;4.43;;;4.03;;
6111;SDS011;3086;48.802;9.394;2023-04-15T19:38:44;4.13;;;3.83;;
6111;SDS011;3086;48.802;9.394;2023-04-15T19:42:06;5.40;;;4.37;;
6111;SDS011;3086;48.802;9.394;2023-04-15T19:45:27;5.53;;;4.30;;
6111;SDS011;3086;48.802;9.394;2023-04-15T19:48:50;6.37;;;4.63;;
6111;SDS011;3086;48.802;9.394;2023-04-15T19:52:12;5.20;;;4.80;;
6111;SDS011;3086;48.802;9.394;2023-04-15T19:55:39;5.23;;;4.73;;
6111;SDS011;3086;48.802;9.394;2023-04-15T19:59:01;5.30;;;4.80;;
6111;SDS011;3086;48.802;9.394;2023-04-15T20:02:22;6.20;;;5.60;;
6111;SDS011;3086;48.802;9.394;2023-04-15T20:05:45;6.63;;;5.87;;
6111;SDS011;3086;48.802;9.394;2023-04-15T20:09:07;6.17;;;5.57;;
6111;SDS011;3086;48.802;9.394;2023-04-15T20:12:28;6.70;;;6.00;;
6111;SDS011;3086;48.802;9.394;2023-04-15T20:15:50;6.97;;;6.27;;
6111;SDS011;3086;48.802;9.394;2023-04-15T20:19:11;7.53;;;6.83;;
6111;SDS011;3086;48.802;9.394;2023-04-15T20:22:35;7.77;;;7.07;;
6111;SDS011;3086;48.802;9.394;2023-04-15T20:25:56;7.10;;;6.10;;
6111;SDS011;3086;48.802;9.394;2023-04-15T20:29:18;7.60;;;6.90;;
6111;SDS011;3086;48.802;9.394;2023-04-15T20:32:39;7.80;;;7.10;;
6111;SDS011;3086;48.802;9.394;2023-04-15T20:36:01;8.60;;;7.70;;
6111;SDS011;3086;48.802;9.394;2023-04-15T20:39:24;8.57;;;7.77;;
6111;SDS011;3086;48.802;9.394;2023-04-15T20:42:46;9.23;;;8.30;;
6111;SDS011;3086;48.802;9.394;2023-04-15T20:46:07;9.57;;;8.63;;
6111;SDS011;3086;48.802;9.394;2023-04-15T20:49:31;9.93;;;8.93;;
6111;SDS011;3086;48.802;9.394;2023-04-15T20:52:53;10.67;;;9.10;;
6111;SDS011;3086;48.802;9.394;2023-04-15T20:56:16;10.03;;;9.10;;
6111;SDS011;3086;48.802;9.394;2023-04-15T20:59:37;10.80;;;9.70;;
6111;SDS011;3086;48.802;9.394;2023-04-15T21:02:59;11.90;;;10.07;;
6111;SDS011;3086;48.802;9.394;2023-04-15T21:06:21;12.90;;;11.13;;
6111;SDS011;3086;48.802;9.394;2023-04-15T21:09:42;12.33;;;11.13;;
6111;SDS011;3086;48.802;9.394;2023-04-15T21:13:05;12.63;;;11.33;;
6111;SDS011;3086;48.802;9.394;2023-04-15T21:16:27;14.03;;;11.53;;
6111;SDS011;3086;48.802;9.394;2023-04-15T21:19:50;12.30;;;11.00;;
6111;SDS011;3086;48.802;9.394;2023-04-15T21:23:12;12.90;;;11.53;;
6111;SDS011;3086;48.802;9.394;2023-04-15T21:26:33;14.73;;;13.17;;
6111;SDS011;3086;48.802;9.394;2023-04-15T21:29:57;10.83;;;9.73;;
6111;SDS011;3086;48.802;9.394;2023-04-15T21:33:18;11.80;;;10.60;;
6111;SDS011;3086;48.802;9.394;2023-04-15T21:36:40;11.23;;;10.13;;
6111;SDS011;3086;48.802;9.394;2023-04-15T21:40:02;13.00;;;11.70;;
6111;SDS011;3086;48.802;9.394;2023-04-15T21:43:24;11.77;;;10.57;;
6111;SDS011;3086;48.802;9.394;2023-04-15T21:46:47;10.80;;;9.70;;
6111;SDS011;3086;48.802;9.394;2023-04-15T21:50:09;10.17;;;9.13;;
6111;SDS011;3086;48.802;9.394;2023-04-15T21:53:31;10.17;;;9.03;;
6111;SDS011;3086;48.802;9.394;2023-04-15T21:56:52;11.00;;;9.53;;
6111;SDS011;3086;48.802;9.394;2023-04-15T22:00:14;10.77;;;9.67;;
6111;SDS011;3086;48.802;9.394;2023-04-15T22:03:37;11.67;;;10.47;;
6111;SDS011;3086;48.802;9.394;2023-04-15T22:06:59;11.93;;;10.73;;
6111;SDS011;3086;48.802;9.394;2023-04-15T22:10:21;13.23;;;11.93;;
6111;SDS011;3086;48.802;9.394;2023-04-15T22:13:43;14.00;;;10.53;;
6111;SDS011;3086;48.802;9.394;2023-04-15T22:17:04;13.30;;;11.73;;
6111;SDS011;3086;48.802;9.394;2023-04-15T22:20:27;14.47;;;12.70;;
6111;SDS011;3086;48.802;9.394;2023-04-15T22:23:49;11.97;;;10.77;;
6111;SDS011;3086;48.802;9.394;2023-04-15T22:27:11;12.87;;;11.20;;
6111;SDS011;3086;48.802;9.394;2023-04-15T22:30:35;13.30;;;11.67;;
6111;SDS011;3086;48.802;9.394;2023-04-15T22:33:57;13.73;;;11.90;;
6111;SDS011;3086;48.802;9.394;2023-04-15T22:37:20;14.50;;;13.00;;
6111;SDS011;3086;48.802;9.394;2023-04-15T22:40:44;15.53;;;13.83;;
6111;SDS011;3086;48.802;9.394;2023-04-15T22:44:05;15.73;;;13.97;;
6111;SDS011;3086;48.802;9.394;2023-04-15T22:47:47;15.73;;;14.03;;